Sassamansville, Pennsylvania
Current Conditions -  °F | °C
As of 6:54 AM on Wednesday 28 Jan 2015 (Local Time) from KPTW Reporting Station
Clear Clear  
Wind Chill:   Ceiling: Unl
Heat Index: 15°   Visibility: 10mi
Dew Point: -1°   Wind: 8mph
Humidity: 49%   Direction: 290°WNW
Pressure: 30.07"   Gusts: NA
Location:  40.34°N, 75.57°W
Report Text: KPTW 281154Z AUTO 29007KT 10SM CLR M09/M18 A3007 RMK AO2 SLP184 T10941183 11083 21094 53024
Loading
Personal Weather Stations






























Interactive Weather Map New forecast layout! Learn more

10-Day Weather Forecast

Advertisements
Track Severe Weather on mobile